• Join FlightAware (Why Join?)
  • Login
  • US Flag 
11:36PM EDT


 

Airport Tracker/Info


-or-


 

Live Flight TrackerFlight Track Log ✈ UAL1177 ✈ 12-May-2013 ✈ KRDU - KIAH

Flight Track Log - Related Links

Times and Time Zones

All times are in EDT time to prevent confusion due to time zone crossing. See the UAL1177 flight status page for this flight to view local times or setup timezone preferences in your user account.

Time Position Orientation Groundspeed Altitude Reporting Facility
EDT Latitude Longitude Course Direction KTS MPH feet Rate Location/Type
06:26PM 35.8644 -78.8164 264° West 170 196 1,400  Level Washington Center
06:27PM 35.8342 -78.8483 221° Southwest 201 231 2,500 2,160 Climbing Washington Center
06:28PM 35.8261 -78.9197 262° West 254 292 5,200 2,640 Climbing Washington Center
06:28PM 35.8340 -78.9560 264° West 254 292 6,200 1,260 Climbing FlightAware
06:29PM 35.8471 -79.1178 264° West  Level FlightAware Approximate
06:29PM 35.8390 -78.9870 281° West 254 292 6,200  Level FlightAware
06:29PM 35.8650 -79.0214 295° West 262 302 8,400 3,720 Climbing Washington Center
06:30PM 35.8689 -79.1036 273° West 244 281 11,600 2,280 Climbing Washington Center
06:31PM 35.8397 -79.2073 264° West  Level FlightAware Approximate
06:31PM 35.8533 -79.1978 259° West 282 325 13,100  Level Washington Center
06:32PM 35.8353 -79.3172 259° West 325 374 16,200 2,520 Climbing Washington Center
06:33PM 35.8275 -79.4244 265° West 339 390 18,300 2,100 Climbing Washington Center
06:35PM 35.7872 -79.6919 260° West 345 397 23,200 1,980 Climbing Atlanta Center
06:36PM 35.7664 -79.8133 258° West 351 404 24,800 1,320 Climbing Atlanta Center
06:42PM 35.6520 -80.4830 258° West 377 434 32,000 1,140 Climbing FlightAware
06:43PM 35.6230 -80.5910 252° West 378 435 32,000  Level FlightAware
06:43PM 35.5940 -80.6950 251° West 378 435 32,000  Level FlightAware
06:44PM 35.5710 -80.7760 251° West 377 434 32,000  Level FlightAware
06:45PM 35.5480 -80.8590 251° West 375 432 32,000  Level FlightAware
06:45PM 35.5230 -80.9490 251° West 375 432 32,000  Level FlightAware
06:46PM 35.5010 -81.0290 251° West 375 432 32,000  Level FlightAware
06:47PM 35.4816 -81.0965 251° West 373 429 32,000  Level FlightAware ADS-B
06:47PM 35.4527 -81.1984 251° West 374 430 32,000  Level FlightAware ADS-B
06:48PM 35.4263 -81.2919 251° West 372 428 32,000  Level FlightAware ADS-B
06:49PM 35.4092 -81.3519 251° West 372 428 32,000  Level FlightAware ADS-B
06:49PM 35.3915 -81.4140 251° West 371 427 32,000  Level FlightAware ADS-B
06:50PM 35.3735 -81.4770 251° West 371 427 32,000  Level FlightAware ADS-B
06:50PM 35.3562 -81.5374 251° West 370 426 32,000  Level FlightAware ADS-B
06:51PM 35.3394 -81.5963 251° West 367 422 32,000  Level FlightAware ADS-B
06:51PM 35.3224 -81.6552 251° West 367 422 32,000  Level FlightAware ADS-B
06:52PM 35.3053 -81.7146 251° West 369 425 32,000  Level FlightAware ADS-B
06:52PM 35.2882 -81.7739 251° West 369 425 32,000  Level FlightAware ADS-B
06:53PM 35.2709 -81.8341 251° West 366 421 32,000  Level FlightAware ADS-B
06:53PM 35.2538 -81.8931 250° West 364 419 32,000  Level FlightAware ADS-B
06:54PM 35.2362 -81.9534 250° West 362 417 32,000  Level FlightAware ADS-B
06:54PM 35.2191 -82.0123 250° West 361 415 32,000  Level FlightAware ADS-B
06:55PM 35.2022 -82.0701 250° West 360 414 32,000  Level FlightAware ADS-B
06:55PM 35.1852 -82.1283 250° West 359 413 32,000  Level FlightAware ADS-B
06:56PM 35.1685 -82.1851 250° West 349 402 32,000  Level FlightAware ADS-B
06:56PM 35.1525 -82.2397 250° West 339 390 32,000  Level FlightAware ADS-B
06:57PM 35.1419 -82.2758 250° West 335 386 32,000  Level FlightAware ADS-B
06:57PM 35.1243 -82.3356 250° West 329 379 32,000  Level FlightAware ADS-B
06:58PM 35.1084 -82.3896 250° West 326 375 32,000 720 Level FlightAware ADS-B
06:58PM 35.0901 -82.4512 250° West 325 374 32,800 1,620 Climbing FlightAware ADS-B
06:59PM 35.0739 -82.5066 250° West 312 359 33,900 1,080 Climbing FlightAware ADS-B
06:59PM 35.0587 -82.5578 250° West 319 367 34,000 60 Climbing FlightAware ADS-B
07:00PM 35.0433 -82.6095 250° West 329 379 34,000  Level FlightAware ADS-B
07:00PM 35.0274 -82.6626 250° West 331 381 34,000  Level FlightAware ADS-B
07:01PM 35.0118 -82.7151 250° West 333 383 34,000  Level FlightAware ADS-B
07:02PM 34.9961 -82.7682 250° West 333 383 34,000  Level FlightAware ADS-B
07:02PM 34.9800 -82.8217 250° West 331 381 34,000  Level FlightAware ADS-B
07:03PM 34.9642 -82.8739 250° West 326 375 34,000  Level FlightAware ADS-B
07:03PM 34.9487 -82.9253 250° West 325 374 34,000  Level FlightAware ADS-B
07:04PM 34.9332 -82.9769 250° West 324 373 34,000  Level FlightAware ADS-B
07:04PM 34.9164 -83.0328 250° West 324 373 34,000  Level FlightAware ADS-B
07:05PM 34.8998 -83.0877 250° West 325 374 34,000  Level FlightAware ADS-B
07:05PM 34.8840 -83.1399 250° West 326 375 34,000  Level FlightAware ADS-B
07:06PM 34.8679 -83.1930 250° West 326 375 34,000  Level FlightAware ADS-B
07:06PM 34.8521 -83.2447 250° West 326 375 34,000  Level FlightAware ADS-B
07:07PM 34.8371 -83.2936 250° West 326 375 34,000  Level FlightAware ADS-B
07:07PM 34.8210 -83.3463 250° West 326 375 34,000  Level FlightAware ADS-B
07:08PM 34.8054 -83.3981 250° West 327 376 34,000  Level FlightAware ADS-B
07:08PM 34.7891 -83.4516 250° West 328 377 34,000  Level FlightAware ADS-B
07:09PM 34.7731 -83.5038 250° West 331 381 34,000  Level FlightAware ADS-B
07:09PM 34.7565 -83.5578 249° West 332 382 34,000  Level FlightAware ADS-B
07:10PM 34.7403 -83.6103 249° West 333 383 34,000  Level FlightAware ADS-B
07:10PM 34.7239 -83.6635 249° West 333 383 34,000  Level FlightAware ADS-B
07:11PM 34.7075 -83.7167 249° West 333 383 34,000  Level FlightAware ADS-B
07:11PM 34.6910 -83.7698 249° West 334 384 34,000  Level FlightAware ADS-B
07:12PM 34.6746 -83.8229 249° West 333 383 34,000  Level FlightAware ADS-B
07:12PM 34.6583 -83.8756 249° West 332 382 34,000  Level FlightAware ADS-B
07:13PM 34.6417 -83.9287 249° West 331 381 34,000  Level FlightAware ADS-B
07:13PM 34.6241 -83.9853 249° West 331 381 34,000  Level FlightAware ADS-B
07:14PM 34.6076 -84.0380 249° West 331 381 34,000  Level FlightAware ADS-B
07:14PM 34.5911 -84.0911 249° West 331 381 34,000  Level FlightAware ADS-B
07:15PM 34.5747 -84.1432 249° West 333 383 34,000  Level FlightAware ADS-B
07:15PM 34.5581 -84.1962 249° West 335 386 34,000  Level FlightAware ADS-B
07:16PM 34.5412 -84.2499 249° West 336 387 34,000  Level FlightAware ADS-B
07:16PM 34.5244 -84.3031 249° West 338 389 34,000  Level FlightAware ADS-B
07:17PM 34.5070 -84.3583 249° West 339 390 34,000  Level FlightAware ADS-B
07:17PM 34.4881 -84.4180 249° West 341 392 34,000  Level FlightAware ADS-B
07:18PM 34.4710 -84.4719 249° West 340 391 34,000  Level FlightAware ADS-B
07:18PM 34.4538 -84.5263 249° West 341 392 34,000  Level FlightAware ADS-B
07:19PM 34.4354 -84.5842 249° West 342 394 34,000  Level FlightAware ADS-B
07:19PM 34.4177 -84.6398 249° West 342 394 34,000  Level FlightAware ADS-B
07:20PM 34.3997 -84.6960 249° West 343 395 34,000  Level FlightAware ADS-B
07:20PM 34.3820 -84.7512 249° West 344 396 34,000  Level FlightAware ADS-B
07:21PM 34.3646 -84.8056 249° West 344 396 34,000  Level FlightAware ADS-B
07:21PM 34.3470 -84.8607 249° West 343 395 34,000  Level FlightAware ADS-B
07:22PM 34.3293 -84.9157 249° West 343 395 34,000  Level FlightAware ADS-B
07:22PM 34.3121 -84.9692 249° West 342 394 34,000  Level FlightAware ADS-B
07:23PM 34.2948 -85.0228 249° West 342 394 34,000  Level FlightAware ADS-B
07:24PM 34.2772 -85.0775 249° West 341 392 34,000  Level FlightAware ADS-B
07:24PM 34.2584 -85.1356 249° West 341 392 34,000  Level FlightAware ADS-B
07:25PM 34.2406 -85.1906 249° West 340 391 34,000  Level FlightAware ADS-B
07:25PM 34.2226 -85.2458 248° West 339 390 34,000  Level FlightAware ADS-B
07:26PM 34.1927 -85.3375 249° West 340 391 34,000  Level FlightAware ADS-B
07:27PM 34.1740 -85.3951 249° West 339 390 34,000  Level FlightAware ADS-B
07:27PM 34.1640 -85.4250 248° West 337 388 34,000  Level FlightAware
07:28PM 34.1380 -85.5060 249° West 337 388 34,000  Level FlightAware
07:28PM 34.1150 -85.5780 249° West 337 388 34,000  Level FlightAware
07:29PM 34.0960 -85.6380 249° West 337 388 34,000  Level FlightAware
07:30PM 34.0770 -85.6970 249° West 337 388 34,000  Level FlightAware
07:30PM 34.0580 -85.7570 249° West 337 388 34,000  Level FlightAware
07:31PM 34.0175 -85.8700 247° West 340 391 34,000  Level FlightAware ADS-B
07:32PM 33.9996 -85.9239 248° West 340 391 34,000  Level FlightAware ADS-B
07:32PM 33.9809 -85.9803 248° West 341 392 34,000  Level FlightAware ADS-B
07:33PM 33.9598 -86.0435 248° West 341 392 34,000  Level FlightAware ADS-B
07:34PM 33.9229 -86.1537 248° West 342 394 34,000  Level FlightAware ADS-B
07:35PM 33.8660 -86.3240 248° West 34,000  Level FlightAware
07:36PM 33.8390 -86.4020 247° West 339 390 34,000  Level FlightAware
07:37PM 33.8220 -86.4550 249° West 337 388 34,000  Level FlightAware
07:38PM 33.7900 -86.5490 248° West 337 388 34,000  Level FlightAware
07:38PM 33.7670 -86.6170 248° West 337 388 34,000  Level FlightAware
07:39PM 33.7400 -86.6950 247° West 338 389 34,000  Level FlightAware
07:40PM 33.7220 -86.7490 248° West 338 389 34,000  Level FlightAware
07:40PM 33.6930 -86.8340 248° West 338 389 34,000  Level FlightAware
07:41PM 33.6660 -86.9110 247° West 337 388 34,000  Level FlightAware
07:42PM 33.6460 -86.9710 248° West 338 389 34,000  Level FlightAware
07:43PM 33.6140 -87.0660 248° West 340 391 34,000  Level FlightAware
07:43PM 33.5940 -87.1260 248° West 340 391 34,000  Level FlightAware
07:44PM 33.5740 -87.1860 248° West 340 391 34,000  Level FlightAware
07:45PM 33.5540 -87.2450 248° West 340 391 34,000  Level FlightAware
07:45PM 33.5290 -87.3190 248° West 340 391 34,000  Level FlightAware
07:46PM 33.5090 -87.3790 248° West 340 391 34,000  Level FlightAware
07:47PM 33.4890 -87.4380 248° West 340 391 34,000  Level FlightAware
07:47PM 33.4690 -87.4980 248° West 340 391 34,000  Level FlightAware
07:48PM 33.4490 -87.5570 248° West 340 391 34,000  Level FlightAware
07:49PM 33.4230 -87.6310 247° West 340 391 34,000  Level FlightAware
07:50PM 33.4030 -87.6910 248° West 340 391 34,000  Level FlightAware
07:50PM 33.3830 -87.7500 248° West 340 391 34,000  Level FlightAware
07:51PM 33.3630 -87.8100 248° West 340 391 34,000  Level FlightAware
07:52PM 33.3430 -87.8690 248° West 340 391 34,000  Level FlightAware
07:53PM 33.2408 -88.1367 248° West 341 392 34,000  Level Memphis Center
07:54PM 33.2092 -88.2417 250° West 341 392 34,000  Level Memphis Center
07:55PM 33.1714 -88.3494 247° West 341 392 34,000  Level Memphis Center
07:56PM 33.1333 -88.4544 247° West 341 392 34,000  Level Memphis Center
07:57PM 33.0972 -88.5594 248° West 341 392 34,000  Level Memphis Center
07:58PM 33.0611 -88.6592 247° West 341 392 34,000  Level Memphis Center
07:59PM 33.0208 -88.7692 246° West 341 392 34,000  Level Memphis Center
08:00PM 32.9844 -88.8714 247° West 341 392 34,000  Level Memphis Center
08:01PM 32.9461 -88.9758 246° West 341 392 34,000  Level Memphis Center
08:02PM 32.9075 -89.0806 246° West 341 392 34,000  Level Memphis Center
08:03PM 32.8647 -89.1997 247° West 346 398 34,000  Level Memphis Center
08:04PM 32.8281 -89.3042 247° West 346 398 34,000  Level Memphis Center
08:05PM 32.7872 -89.4083 245° Southwest 346 398 34,000  Level Memphis Center
08:06PM 32.7567 -89.4953 247° West 351 404 34,000  Level Memphis Center
08:07PM 32.7133 -89.6067 245° Southwest 351 404 34,000  Level Memphis Center
08:08PM 32.6764 -89.7131 248° West 351 404 34,000  Level Memphis Center
08:09PM 32.6353 -89.8194 245° Southwest 356 410 34,000  Level Memphis Center
08:10PM 32.5981 -89.9233 247° West 356 410 34,000  Level Memphis Center
08:11PM 32.5586 -90.0294 246° West 356 410 34,000  Level Memphis Center
08:12PM 32.5194 -90.1356 246° West 356 410 34,000  Level Memphis Center
08:13PM 32.4694 -90.2392 240° Southwest 356 410 34,000  Level Memphis Center
08:14PM 32.4194 -90.3375 239° Southwest 356 410 34,000  Level Memphis Center
08:15PM 32.3672 -90.4361 238° Southwest 356 410 34,000  Level Memphis Center
08:16PM 32.3147 -90.5367 238° Southwest 361 415 34,000  Level Memphis Center
08:17PM 32.2583 -90.6447 238° Southwest 361 415 34,000  Level Memphis Center
08:19PM 32.1656 -90.8203 238° Southwest 356 410 34,000  Level Houston Center
08:20PM 32.1133 -90.9208 239° Southwest 359 413 34,000  Level Houston Center
08:21PM 32.0603 -91.0197 238° Southwest 359 413 34,000  Level Houston Center
08:22PM 31.9967 -91.1386 238° Southwest 358 412 34,000  Level Houston Center
08:27PM 31.6962 -91.6974 238° Southwest 363 418 34,000  Level FlightAware ADS-B
08:32PM 31.4653 -92.1216 238° Southwest 364 419 34,000  Level FlightAware ADS-B
08:33PM 31.4149 -92.2134 237° Southwest 363 418 34,000  Level FlightAware ADS-B
08:33PM 31.3850 -92.2679 237° Southwest 365 420 34,000  Level FlightAware ADS-B
08:34PM 31.3575 -92.3181 237° Southwest 364 419 34,000  Level FlightAware ADS-B
08:34PM 31.3248 -92.3776 237° Southwest 366 421 34,000  Level FlightAware ADS-B
08:35PM 31.2963 -92.4294 237° Southwest 366 421 34,000  Level FlightAware ADS-B
08:35PM 31.2686 -92.4796 237° Southwest 366 421 34,000  Level FlightAware ADS-B
08:36PM 31.2113 -92.5825 237° Southwest 368 423 34,000  Level FlightAware ADS-B
08:37PM 31.1826 -92.6342 237° Southwest 368 423 34,000  Level FlightAware ADS-B
08:37PM 31.1499 -92.6927 237° Southwest 369 425 34,000  Level FlightAware ADS-B
08:38PM 31.0962 -92.7893 237° Southwest 370 426 34,000 -180 Level FlightAware ADS-B
08:39PM 31.0671 -92.8410 237° Southwest 371 427 33,800 -720 Descending FlightAware ADS-B
08:39PM 31.0381 -92.8926 237° Southwest 376 433 33,300 -900 Descending FlightAware ADS-B
08:40PM 31.0086 -92.9447 237° Southwest 378 435 32,900 -900 Descending FlightAware ADS-B
08:40PM 30.9796 -92.9965 237° Southwest 380 437 32,400 -1,020 Descending FlightAware ADS-B
08:41PM 30.9500 -93.0496 237° Southwest 380 437 31,900 -1,020 Descending FlightAware ADS-B
08:41PM 30.9208 -93.1013 237° Southwest 382 440 31,400 -1,020 Descending FlightAware ADS-B
08:42PM 30.8906 -93.1547 237° Southwest 384 442 30,900 -1,020 Descending FlightAware ADS-B
08:42PM 30.8602 -93.2080 236° Southwest 386 444 30,400 -1,020 Descending FlightAware ADS-B
08:43PM 30.8298 -93.2617 237° Southwest 386 444 29,900 -1,080 Descending FlightAware ADS-B
08:43PM 30.7995 -93.3153 237° Southwest 384 442 29,300 -1,140 Descending FlightAware ADS-B
08:44PM 30.7702 -93.3671 237° Southwest 381 438 28,800 -1,020 Descending FlightAware ADS-B
08:44PM 30.7404 -93.4196 237° Southwest 377 434 28,300 -1,080 Descending FlightAware ADS-B
08:45PM 30.7108 -93.4716 237° Southwest 375 432 27,700 -1,080 Descending FlightAware ADS-B
08:46PM 30.6808 -93.5241 236° Southwest 371 427 27,200 -1,080 Descending FlightAware ADS-B
08:46PM 30.6502 -93.5774 236° Southwest 374 430 26,600 -1,080 Descending FlightAware ADS-B
08:47PM 30.6205 -93.6295 236° Southwest 375 432 26,100 -1,020 Descending FlightAware ADS-B
08:47PM 30.5910 -93.6812 236° Southwest 378 435 25,600 -1,020 Descending FlightAware ADS-B
08:48PM 30.5620 -93.7321 237° Southwest 381 438 25,100 -1,020 Descending FlightAware ADS-B
08:48PM 30.5222 -93.8015 236° Southwest 382 440 24,400 -1,140 Descending FlightAware ADS-B
08:49PM 30.4912 -93.8553 236° Southwest 384 442 23,800 -1,680 Descending FlightAware ADS-B
08:49PM 30.4613 -93.9071 236° Southwest 376 433 22,700 -2,340 Descending FlightAware ADS-B
08:50PM 30.4315 -93.9584 236° Southwest 370 426 21,400 -2,460 Descending FlightAware ADS-B
08:50PM 30.4032 -94.0075 236° Southwest 364 419 20,200 -2,460 Descending FlightAware ADS-B
08:51PM 30.3740 -94.0583 236° Southwest 361 415 18,900 -2,460 Descending FlightAware ADS-B
08:51PM 30.3461 -94.1069 236° Southwest 357 411 17,700 -2,460 Descending FlightAware ADS-B
08:52PM 30.3361 -94.1243 236° Southwest 356 410 17,200 -2,400 Descending FlightAware ADS-B
08:52PM 30.3289 -94.1388 240° Southwest 353 406 16,900 -1,680 Descending FlightAware ADS-B
08:52PM 30.3201 -94.1617 246° West 344 396 16,600 -1,680 Descending FlightAware ADS-B
08:52PM 30.3040 -94.2169 251° West 377 434 15,700 -1,920 Descending FlightAware ADS-B
08:53PM 30.2869 -94.2766 252° West 388 447 14,700 -1,920 Descending FlightAware ADS-B
08:53PM 30.2700 -94.3353 252° West 383 441 13,800 -1,620 Descending FlightAware ADS-B
08:54PM 30.2529 -94.3941 251° West 380 437 13,100 -1,260 Descending FlightAware ADS-B
08:54PM 30.2356 -94.4540 252° West 377 434 12,500 -1,260 Descending FlightAware ADS-B
08:55PM 30.2188 -94.5119 251° West 379 436 11,800 -1,320 Descending FlightAware ADS-B
08:55PM 30.2022 -94.5694 252° West 373 429 11,200 -1,320 Descending FlightAware ADS-B
08:56PM 30.1849 -94.6283 251° West 373 429 10,500 -1,380 Descending FlightAware ADS-B
08:56PM 30.1725 -94.6710 251° West 371 427 10,000 -1,080 Descending FlightAware ADS-B
08:57PM 30.1641 -94.6999 251° West 370 426 9,800 -420 Descending FlightAware ADS-B
08:57PM 30.1559 -94.7279 251° West 369 425 9,800  Level FlightAware ADS-B
08:57PM 30.1475 -94.7565 251° West 368 423 9,800  Level FlightAware ADS-B
08:57PM 30.1383 -94.7878 251° West 368 423 9,800  Level FlightAware ADS-B
08:58PM 30.1302 -94.8157 251° West 369 425 9,800  Level FlightAware ADS-B
08:58PM 30.1217 -94.8448 251° West 371 427 9,800  Level FlightAware ADS-B
08:58PM 30.1150 -94.8681 252° West 372 428 9,800  Level FlightAware ADS-B
08:58PM 30.1119 -94.8813 255° West 372 428 9,800  Level FlightAware ADS-B
08:58PM 30.1098 -94.8920 257° West 372 428 9,800  Level FlightAware ADS-B
08:58PM 30.1081 -94.9029 260° West 372 428 9,800  Level FlightAware ADS-B
08:59PM 30.1064 -94.9189 263° West 371 427 9,800  Level FlightAware ADS-B
08:59PM 30.1056 -94.9330 266° West 370 426 9,800  Level FlightAware ADS-B
08:59PM 30.1056 -94.9634 270° West 370 426 9,800  Level FlightAware ADS-B
08:59PM 30.1057 -94.9933 270° West 355 409 9,800  Level FlightAware ADS-B
08:59PM 30.1058 -95.0216 270° West 336 387 9,800  Level FlightAware ADS-B
09:00PM 30.1058 -95.0478 270° West 318 366 9,800 -240 Level FlightAware ADS-B
09:00PM 30.1058 -95.0730 270° West 303 349 9,700 -420 Descending FlightAware ADS-B
09:00PM 30.1058 -95.0979 270° West 291 335 9,600 -960 Descending FlightAware ADS-B
09:00PM 30.1059 -95.1223 270° West 290 334 9,200 -1,560 Descending FlightAware ADS-B
09:01PM 30.1060 -95.1389 270° West 288 331 8,900 -1,440 Descending FlightAware ADS-B
09:01PM 30.1061 -95.1618 270° West 286 329 8,600 -1,200 Descending FlightAware ADS-B
09:01PM 30.1062 -95.1854 270° West 284 327 8,300 -1,560 Descending FlightAware ADS-B
09:01PM 30.1064 -95.2093 271° West 284 327 7,800 -1,740 Descending FlightAware ADS-B
09:02PM 30.1065 -95.2335 270° West 285 328 7,400 -1,560 Descending FlightAware ADS-B
09:02PM 30.1066 -95.2563 270° West 285 328 7,000 -1,500 Descending FlightAware ADS-B
09:02PM 30.1069 -95.2897 271° West 286 329 6,500 -1,500 Descending FlightAware ADS-B
09:03PM 30.1068 -95.3126 270° West 284 327 6,100 -1,380 Descending FlightAware ADS-B
09:03PM 30.1068 -95.3364 270° West 281 323 5,800 -600 Descending FlightAware ADS-B
09:03PM 30.1068 -95.3594 270° West 278 320 5,800 -840 Level FlightAware ADS-B
09:03PM 30.1068 -95.3815 270° West 276 318 5,400 -1,440 Descending FlightAware ADS-B
09:04PM 30.1068 -95.4035 270° West 274 315 5,100 -1,200 Descending FlightAware ADS-B
09:04PM 30.1068 -95.4257 270° West 272 313 4,800 -1,380 Descending FlightAware ADS-B
09:04PM 30.1068 -95.4487 270° West 270 311 4,400 -1,500 Descending FlightAware ADS-B
09:04PM 30.1068 -95.4771 270° West 271 312 3,900 -1,440 Descending FlightAware ADS-B
09:05PM 30.1049 -95.4916 261° West 272 313 3,700 -1,320 Descending FlightAware ADS-B
09:05PM 30.1031 -95.4969 249° West 272 313 3,600 -1,200 Descending FlightAware ADS-B
09:05PM 30.0999 -95.5038 242° Southwest 274 315 3,500 -1,380 Descending FlightAware ADS-B
09:05PM 30.0969 -95.5085 234° Southwest 274 315 3,400 -1,740 Descending FlightAware ADS-B
09:05PM 30.0943 -95.5116 226° Southwest 275 316 3,300 -1,500 Descending FlightAware ADS-B
09:05PM 30.0896 -95.5162 220° Southwest 276 318 3,200 -2,040 Descending FlightAware ADS-B
09:05PM 30.0842 -95.5201 212° Southwest 276 318 3,000 -1,500 Descending FlightAware ADS-B
09:05PM 30.0769 -95.5236 203° Southwest 277 319 2,900 -1,200 Descending FlightAware ADS-B
09:05PM 30.0729 -95.5248 195° South 277 319 2,800 -1,740 Descending FlightAware ADS-B
09:05PM 30.0671 -95.5257 188° South 277 319 2,700 -1,200 Descending FlightAware ADS-B
09:05PM 30.0599 -95.5255 179° South 275 316 2,600 -600 Descending FlightAware ADS-B
09:05PM 30.0551 -95.5244 169° South 270 311 2,600  Level FlightAware ADS-B
09:05PM 30.0517 -95.5232 163° South 263 303 2,600  Level FlightAware ADS-B
09:06PM 30.0467 -95.5207 157° South 255 293 2,600  Level FlightAware ADS-B
09:06PM 30.0410 -95.5168 149° Southeast 249 287 2,600  Level FlightAware ADS-B
09:06PM 30.0310 -95.5088 145° Southeast 239 275 2,600  Level FlightAware ADS-B
09:06PM 30.0259 -95.5036 139° Southeast 234 269 2,600 -600 Level FlightAware ADS-B
09:06PM 30.0228 -95.4991 129° Southeast 233 268 2,500 -1,500 Descending FlightAware ADS-B
09:06PM 30.0212 -95.4960 121° Southeast 229 264 2,400 -900 Descending FlightAware ADS-B
09:06PM 30.0195 -95.4916 114° Southeast 227 261 2,400 -360 Level FlightAware ADS-B
09:06PM 30.0154 -95.4769 108° East 210 242 2,300 -720 Descending FlightAware ADS-B
09:07PM 30.0104 -95.4562 106° East 189 217 2,000 -1,080 Descending FlightAware ADS-B
09:07PM 30.0086 -95.4486 105° East 182 209 1,800 -900 Descending FlightAware ADS-B
09:07PM 30.0077 -95.4433 101° East 173 199 1,800 -960 Level FlightAware ADS-B
09:07PM 30.0070 -95.4319 94° East 163 188 1,500 -1,740 Descending FlightAware ADS-B
09:07PM 30.0069 -95.4249 91° East 165 190 1,200 -2,160 Descending FlightAware ADS-B
09:07PM 30.0069 -95.4198 90° East 163 188 1,000 -1,440 Descending FlightAware ADS-B
09:07PM 30.0070 -95.4136 89° East 159 183 900 -1,200 Descending FlightAware ADS-B
09:08PM 30.0072 -95.4021 89° East 150 173 600 -1,080 Descending FlightAware ADS-B
09:08PM 30.0072 -95.3909 90° East 150 173 400 -840 Descending FlightAware ADS-B
09:08PM 30.0071 -95.3839 91° East 149 171 300 -540 Descending FlightAware ADS-B
09:08PM 30.0072 -95.3726 89° East 149 171 200 -420 Descending FlightAware ADS-B